Time;durP1;ratioP1;P1;durP2;ratioP2;P2;SDS_P1;SDS_P2;PMS_P1;PMS_P2;Temp;Humidity;BMP_temperature;BMP_pressure;BME280_temperature;BME280_humidity;BME280_pressure;Samples;Min_cycle;Max_cycle;Signal;HPM_P1;HPM_P2
2022/01/07 00:01:01;;;;;;;7.88;6.07;;;;;;;3.76;78.75;95152.53;5060431;28;20256;-69
2022/01/07 00:03:28;;;;;;;3.20;3.00;;;;;;;3.57;80.00;95144.28;5060671;28;20207;-71
2022/01/07 00:05:54;;;;;;;2.63;2.50;;;;;;;3.61;79.75;95142.59;5062248;28;20210;-69
2022/01/07 00:08:21;;;;;;;2.80;2.60;;;;;;;3.51;79.57;95144.28;5060316;28;20292;-70
2022/01/07 00:10:49;;;;;;;3.72;3.53;;;;;;;3.46;80.27;95150.22;5060064;28;20208;-70
2022/01/07 00:13:17;;;;;;;3.00;2.80;;;;;;;3.64;79.40;95150.09;5060035;28;20212;-70
2022/01/07 00:15:45;;;;;;;2.40;2.28;;;;;;;3.63;79.19;95155.97;5061378;28;21442;-70
2022/01/07 00:18:11;;;;;;;3.15;2.97;;;;;;;3.71;78.72;95165.13;5060557;28;20221;-71
2022/01/07 00:20:39;;;;;;;3.15;2.95;;;;;;;3.64;78.63;95158.47;5059884;28;20256;-71
2022/01/07 00:23:06;;;;;;;3.33;3.10;;;;;;;3.50;79.95;95160.22;5060206;28;20272;-70
2022/01/07 00:25:34;;;;;;;3.17;2.97;;;;;;;3.57;79.01;95158.50;5059882;28;20214;-71
2022/01/07 00:28:00;;;;;;;3.20;3.00;;;;;;;3.56;79.14;95159.34;5060695;28;20255;-70
2022/01/07 00:30:29;;;;;;;3.43;3.13;;;;;;;3.62;79.46;95161.84;5059983;28;20198;-70
2022/01/07 00:32:55;;;;;;;3.85;2.92;;;;;;;3.65;79.12;95157.63;5060310;28;20682;-70
2022/01/07 00:35:23;;;;;;;5.88;3.75;;;;;;;3.69;79.11;95158.47;5060651;28;20202;-71
2022/01/07 00:37:50;;;;;;;3.45;3.20;;;;;;;3.62;78.81;95154.31;5059975;28;20213;-70
2022/01/07 00:40:21;;;;;;;3.65;3.35;;;;;;;3.63;78.83;95143.41;5059424;28;20206;-71
2022/01/07 00:42:50;;;;;;;3.13;2.92;;;;;;;3.72;78.85;95163.44;5059940;28;20210;-70
2022/01/07 00:45:18;;;;;;;3.10;2.80;;;;;;;3.67;78.33;95160.16;5061309;28;20306;-70
2022/01/07 00:47:48;;;;;;;2.90;2.70;;;;;;;3.64;78.85;95162.66;5059735;28;20334;-70
2022/01/07 00:50:18;;;;;;;3.25;3.05;;;;;;;3.68;78.79;95171.88;5060951;28;20213;-71
2022/01/07 00:52:45;;;;;;;3.10;2.90;;;;;;;3.55;78.72;95182.81;5059688;28;20198;-71
2022/01/07 00:55:13;;;;;;;3.47;3.20;;;;;;;3.57;79.19;95181.97;5059379;28;20213;-70
2022/01/07 00:57:40;;;;;;;3.53;2.40;;;;;;;3.46;79.02;95182.88;5058609;28;20218;-70
2022/01/07 01:00:10;;;;;;;3.67;3.38;;;;;;;3.49;79.52;95187.84;5059352;28;20226;-70
2022/01/07 01:02:37;;;;;;;3.10;2.90;;;;;;;3.48;79.46;95196.22;5059578;28;20226;-71
2022/01/07 01:05:09;;;;;;;3.50;2.90;;;;;;;3.32;79.54;95181.22;5059711;28;20226;-71
2022/01/07 01:07:36;;;;;;;3.37;3.17;;;;;;;3.39;80.04;95190.44;5061220;28;20198;-71
2022/01/07 01:10:05;;;;;;;3.40;3.20;;;;;;;3.48;79.75;95193.72;5060105;28;20589;-71
2022/01/07 01:12:32;;;;;;;3.75;2.83;;;;;;;3.48;78.67;95186.19;5059503;28;20833;-70
2022/01/07 01:14:59;;;;;;;3.50;3.20;;;;;;;3.63;78.50;95188.66;5059635;28;20211;-70
2022/01/07 01:17:26;;;;;;;3.73;3.53;;;;;;;3.75;77.74;95168.47;5058078;28;20324;-71
2022/01/07 01:19:53;;;;;;;3.40;3.10;;;;;;;3.60;78.54;95203.72;5058187;28;20210;-71
2022/01/07 01:22:21;;;;;;;3.47;3.28;;;;;;;3.48;79.25;95193.72;5058711;28;20234;-71
2022/01/07 01:24:48;;;;;;;4.82;3.47;;;;;;;3.57;78.98;95198.72;5057939;28;20646;-71
2022/01/07 01:27:15;;;;;;;3.58;3.38;;;;;;;3.44;79.35;95197.13;5059387;28;20209;-70
2022/01/07 01:29:41;;;;;;;4.80;3.37;;;;;;;3.41;80.28;95196.28;5059687;28;20199;-70
2022/01/07 01:32:09;;;;;;;3.83;3.47;;;;;;;3.37;79.28;95197.13;5060644;28;20605;-71
2022/01/07 01:34:36;;;;;;;3.80;3.50;;;;;;;3.33;79.88;95190.44;5059700;28;20199;-71
2022/01/07 01:37:03;;;;;;;3.53;3.25;;;;;;;3.46;79.44;95185.38;5059302;28;20230;-71
2022/01/07 01:39:31;;;;;;;3.40;3.20;;;;;;;3.27;80.05;95187.94;5059922;28;20859;-71
2022/01/07 01:41:58;;;;;;;3.75;3.55;;;;;;;3.37;80.03;95194.63;5059989;28;20230;-70
2022/01/07 01:44:25;;;;;;;4.13;3.60;;;;;;;3.45;80.20;95194.59;5062401;28;20377;-70
2022/01/07 01:46:52;;;;;;;3.72;3.42;;;;;;;3.47;79.86;95197.91;5062742;28;20853;-71
2022/01/07 01:49:19;;;;;;;3.58;3.28;;;;;;;3.52;79.22;95197.91;5063447;28;20209;-71
2022/01/07 01:51:46;;;;;;;3.50;3.20;;;;;;;3.34;79.37;95192.13;5063960;28;20669;-71
2022/01/07 01:54:13;;;;;;;3.67;3.37;;;;;;;3.24;80.23;95192.13;5062718;28;20575;-71
2022/01/07 01:56:42;;;;;;;5.00;3.90;;;;;;;3.49;80.01;95201.25;5063455;28;20202;-70
2022/01/07 01:59:09;;;;;;;3.90;3.70;;;;;;;3.33;80.25;95192.94;5062548;28;20190;-71
2022/01/07 02:01:36;;;;;;;3.67;3.42;;;;;;;3.38;80.54;95188.75;5063130;28;20234;-71
2022/01/07 02:04:03;;;;;;;4.27;3.97;;;;;;;3.56;79.69;95204.59;5062300;28;20202;-70
2022/01/07 02:06:30;;;;;;;3.63;3.33;;;;;;;3.47;79.88;95194.56;5062147;28;20198;-71
2022/01/07 02:08:57;;;;;;;3.53;3.33;;;;;;;3.29;79.93;95192.97;5062798;28;20195;-70
2022/01/07 02:11:24;;;;;;;3.17;2.97;;;;;;;3.07;80.94;95194.72;5062458;28;20673;-71
2022/01/07 02:13:56;;;;;;;3.38;3.17;;;;;;;2.88;82.37;95201.47;5062068;28;20560;-71
2022/01/07 02:16:26;;;;;;;3.70;3.35;;;;;;;2.90;82.85;95199.78;5063178;28;20206;-71
2022/01/07 02:18:53;;;;;;;3.50;3.20;;;;;;;3.12;81.48;95205.59;5063664;28;20989;-71
2022/01/07 02:21:21;;;;;;;3.55;3.35;;;;;;;3.22;81.13;95207.22;5062046;28;20295;-70
2022/01/07 02:23:48;;;;;;;3.97;3.05;;;;;;;3.20;81.04;95218.13;5064146;28;20202;-71
2022/01/07 02:26:15;;;;;;;3.20;3.00;;;;;;;2.95;82.34;95212.31;5062890;28;20229;-70
2022/01/07 02:28:42;;;;;;;3.37;3.07;;;;;;;3.09;81.78;95210.59;5061880;28;20654;-70
2022/01/07 02:31:10;;;;;;;3.57;3.27;;;;;;;3.07;81.99;95219.81;5062121;28;20272;-70
2022/01/07 02:33:36;;;;;;;3.43;3.13;;;;;;;3.02;81.56;95219.81;5061660;28;20199;-71
2022/01/07 02:36:07;;;;;;;3.70;3.40;;;;;;;2.88;82.27;95220.69;5062377;28;20226;-70
2022/01/07 02:38:35;;;;;;;3.37;3.00;;;;;;;2.97;81.93;95201.41;5062033;28;20591;-70
2022/01/07 02:41:02;;;;;;;3.53;3.23;;;;;;;2.96;82.58;95229.91;5062582;28;20194;-71
2022/01/07 02:43:29;;;;;;;3.80;3.40;;;;;;;3.07;81.78;95222.31;5061741;28;20190;-71
2022/01/07 02:45:55;;;;;;;3.55;3.25;;;;;;;3.05;81.73;95224.84;5061919;28;20209;-71
2022/01/07 02:48:22;;;;;;;3.13;2.92;;;;;;;3.15;82.03;95230.69;5063296;28;20205;-71
2022/01/07 02:50:49;;;;;;;3.30;3.10;;;;;;;3.12;81.75;95230.69;5061776;28;20537;-70
2022/01/07 02:53:16;;;;;;;3.10;2.90;;;;;;;3.13;81.82;95229.84;5060930;28;20206;-70
2022/01/07 02:55:45;;;;;;;3.40;3.10;;;;;;;3.20;81.02;95234.03;5060752;28;20233;-70
2022/01/07 02:58:12;;;;;;;3.47;3.27;;;;;;;2.98;81.81;95232.38;5062706;28;20332;-70
2022/01/07 03:00:39;;;;;;;3.50;3.30;;;;;;;3.13;81.86;95232.38;5062229;28;20614;-70
2022/01/07 03:03:08;;;;;;;3.28;3.08;;;;;;;3.18;80.95;95229.84;5061685;28;20283;-70
2022/01/07 03:05:35;;;;;;;2.97;2.77;;;;;;;3.15;80.69;95229.84;5060997;28;20190;-70
2022/01/07 03:08:03;;;;;;;3.13;2.93;;;;;;;3.08;81.26;95229.84;5059573;28;20199;-70
2022/01/07 03:10:30;;;;;;;3.17;2.97;;;;;;;2.96;81.33;95224.88;5059409;28;20206;-71
2022/01/07 03:13:00;;;;;;;3.10;2.90;;;;;;;3.02;81.31;95224.00;5059434;28;20205;-70
2022/01/07 03:15:27;;;;;;;3.27;2.97;;;;;;;3.13;81.50;95231.53;5060005;28;20202;-70
2022/01/07 03:17:54;;;;;;;4.00;3.70;;;;;;;3.15;81.14;95227.34;5059709;28;20210;-71
2022/01/07 03:20:22;;;;;;;3.27;3.07;;;;;;;3.26;80.73;95231.47;5059078;28;21072;-70
2022/01/07 03:22:50;;;;;;;3.17;2.83;;;;;;;3.18;80.48;95230.69;5061909;28;20253;-70
2022/01/07 03:25:18;;;;;;;3.13;2.92;;;;;;;2.85;82.15;95240.78;5062651;28;20313;-71
2022/01/07 03:27:45;;;;;;;3.10;2.85;;;;;;;2.81;82.88;95236.59;5061095;28;20227;-71
2022/01/07 03:30:17;;;;;;;3.33;3.13;;;;;;;2.84;82.19;95244.97;5061348;28;20190;-70
2022/01/07 03:32:44;;;;;;;3.17;2.97;;;;;;;2.87;82.40;95249.13;5060598;28;20794;-71
2022/01/07 03:35:12;;;;;;;3.55;3.25;;;;;;;2.97;82.46;95240.78;5061658;28;20202;-70
2022/01/07 03:37:39;;;;;;;3.53;3.30;;;;;;;3.00;81.87;95240.75;5061060;28;20230;-70
2022/01/07 03:40:08;;;;;;;4.20;3.57;;;;;;;2.86;82.97;95234.91;5061012;28;20264;-71
2022/01/07 03:42:35;;;;;;;3.63;3.33;;;;;;;2.99;82.45;95249.09;5060743;28;20249;-71
2022/01/07 03:45:02;;;;;;;3.97;3.60;;;;;;;3.05;82.17;95249.09;5060679;28;20206;-71
2022/01/07 03:47:30;;;;;;;3.57;3.33;;;;;;;2.94;82.23;95260.84;5060535;28;20206;-71
2022/01/07 03:49:57;;;;;;;3.83;3.53;;;;;;;3.29;80.62;95259.09;5060932;28;20217;-71
2022/01/07 03:52:23;;;;;;;3.97;3.53;;;;;;;3.22;80.82;95254.91;5060810;28;20275;-71
2022/01/07 03:54:51;;;;;;;8.70;3.73;;;;;;;3.08;81.66;95257.47;5061441;28;20202;-70
2022/01/07 03:57:18;;;;;;;3.88;3.58;;;;;;;3.17;80.86;95254.13;5061236;28;21205;-70
2022/01/07 03:59:45;;;;;;;7.53;4.30;;;;;;;3.16;80.80;95254.97;5061084;28;20206;-70
2022/01/07 04:02:12;;;;;;;4.40;4.10;;;;;;;3.21;80.60;95249.94;5059919;28;20871;-70
2022/01/07 04:04:40;;;;;;;4.47;4.15;;;;;;;3.04;80.98;95260.00;5061728;28;20206;-70
2022/01/07 04:07:07;;;;;;;5.03;4.10;;;;;;;2.96;82.34;95259.19;5060209;28;20202;-70
2022/01/07 04:09:34;;;;;;;4.32;4.03;;;;;;;3.23;81.09;95254.09;5060679;28;20246;-70
2022/01/07 04:12:00;;;;;;;3.97;3.63;;;;;;;3.05;80.98;95259.16;5061819;28;20198;-70
2022/01/07 04:14:27;;;;;;;4.65;4.30;;;;;;;3.14;80.89;95264.16;5060272;28;20202;-71
2022/01/07 04:16:55;;;;;;;4.40;4.00;;;;;;;3.23;80.35;95265.81;5061255;28;20260;-70
2022/01/07 04:19:22;;;;;;;4.07;3.73;;;;;;;3.12;80.77;95265.84;5060942;28;20205;-70
2022/01/07 04:21:50;;;;;;;6.28;5.68;;;;;;;3.20;81.07;95275.88;5059662;28;20264;-70
2022/01/07 04:24:18;;;;;;;4.20;3.80;;;;;;;3.26;80.21;95266.63;5060110;28;20255;-70
2022/01/07 04:26:45;;;;;;;4.30;3.97;;;;;;;3.26;80.32;95279.19;5059817;28;20194;-70
2022/01/07 04:29:11;;;;;;;5.00;3.78;;;;;;;3.32;80.08;95284.22;5059120;28;20297;-70
2022/01/07 04:31:38;;;;;;;4.28;3.88;;;;;;;3.43;79.79;95281.69;5059887;28;21174;-70
2022/01/07 04:34:05;;;;;;;3.92;3.53;;;;;;;3.36;80.05;95285.88;5059442;28;20199;-70
2022/01/07 04:36:32;;;;;;;6.22;4.97;;;;;;;3.23;80.55;95283.38;5061526;28;20226;-70
2022/01/07 04:39:01;;;;;;;5.30;4.80;;;;;;;3.15;81.17;95283.41;5059473;28;20205;-70
2022/01/07 04:41:27;;;;;;;4.68;4.25;;;;;;;3.14;80.45;95289.28;5061178;28;20578;-70
2022/01/07 04:43:54;;;;;;;5.30;4.80;;;;;;;3.20;80.29;95289.28;5060360;28;20601;-70
2022/01/07 04:46:21;;;;;;;4.87;4.47;;;;;;;3.09;81.10;95298.50;5060024;28;20198;-71
2022/01/07 04:48:48;;;;;;;4.30;4.00;;;;;;;2.97;81.80;95294.31;5060114;28;20791;-70
2022/01/07 04:51:16;;;;;;;4.20;3.80;;;;;;;3.02;81.46;95286.78;5059933;28;20199;-70
2022/01/07 04:53:42;;;;;;;4.70;4.30;;;;;;;3.12;81.14;95302.66;5060695;28;20217;-70
2022/01/07 04:56:11;;;;;;;4.60;4.20;;;;;;;3.13;80.92;95300.16;5058491;28;20263;-70
2022/01/07 04:58:37;;;;;;;4.35;3.95;;;;;;;3.11;80.99;95293.47;5057464;28;20625;-70
2022/01/07 05:01:04;;;;;;;4.75;4.35;;;;;;;3.19;80.62;95304.34;5058793;28;20210;-70
2022/01/07 05:03:31;;;;;;;4.30;4.00;;;;;;;3.28;80.88;95297.63;5058018;28;20230;-70
2022/01/07 05:06:11;;;;;;;5.53;4.88;;;;;;;3.24;80.19;95306.00;5059458;28;20203;-69
2022/01/07 05:08:37;;;;;;;10.77;7.30;;;;;;;3.14;81.46;95309.38;5058697;28;20206;-69
2022/01/07 05:11:04;;;;;;;7.60;5.03;;;;;;;3.33;80.51;95316.03;5059673;28;20205;-70
2022/01/07 05:13:32;;;;;;;6.13;4.57;;;;;;;3.33;80.06;95321.06;5059395;28;20202;-69
2022/01/07 05:15:59;;;;;;;5.47;4.80;;;;;;;3.24;80.53;95311.00;5059577;28;20217;-69
2022/01/07 05:18:26;;;;;;;5.27;4.77;;;;;;;3.31;80.26;95307.66;5061129;28;20706;-69
2022/01/07 05:20:53;;;;;;;3.97;3.70;;;;;;;3.32;79.76;95309.34;5063724;28;20209;-70
2022/01/07 05:23:20;;;;;;;4.70;4.28;;;;;;;3.50;79.94;95300.06;5063116;28;20704;-69
2022/01/07 05:25:47;;;;;;;4.90;4.50;;;;;;;3.42;79.75;95305.13;5063526;28;20734;-70
2022/01/07 05:28:13;;;;;;;4.53;4.13;;;;;;;3.51;79.63;95309.28;5064072;28;20964;-69
2022/01/07 05:30:42;;;;;;;6.03;5.17;;;;;;;3.69;78.71;95311.78;5064204;28;20218;-69
2022/01/07 05:33:08;;;;;;;7.87;5.10;;;;;;;3.55;79.06;95318.50;5065600;28;20198;-70
2022/01/07 05:35:35;;;;;;;5.25;4.72;;;;;;;3.48;79.58;95316.81;5064725;28;20202;-70
2022/01/07 05:38:02;;;;;;;4.97;4.57;;;;;;;3.54;79.54;95320.16;5063038;28;20223;-70
2022/01/07 05:40:29;;;;;;;5.73;5.03;;;;;;;3.38;79.49;95311.84;5064602;28;20198;-70
2022/01/07 05:42:56;;;;;;;5.88;5.03;;;;;;;3.45;80.00;95320.22;5063364;28;20230;-70
2022/01/07 05:45:23;;;;;;;4.77;4.37;;;;;;;3.52;79.86;95331.06;5064127;28;20262;-71
2022/01/07 05:47:51;;;;;;;6.13;5.07;;;;;;;3.32;80.13;95329.44;5063869;28;20198;-71
2022/01/07 05:50:18;;;;;;;5.60;5.10;;;;;;;3.25;80.50;95327.75;5062650;28;20202;-70
2022/01/07 05:52:45;;;;;;;5.77;5.27;;;;;;;3.22;80.68;95317.72;5062856;28;20217;-71
2022/01/07 05:55:12;;;;;;;5.00;4.50;;;;;;;3.22;80.22;95327.75;5063646;28;20206;-71
2022/01/07 05:57:38;;;;;;;7.35;5.55;;;;;;;3.19;81.24;95327.78;5064731;28;20205;-70
2022/01/07 06:00:09;;;;;;;6.40;5.60;;;;;;;3.12;81.24;95328.63;5062749;28;20255;-71
2022/01/07 06:02:35;;;;;;;6.40;5.90;;;;;;;3.08;81.40;95334.47;5062440;28;20336;-71
2022/01/07 06:05:04;;;;;;;7.97;5.72;;;;;;;3.20;81.51;95333.66;5063192;28;20209;-71
2022/01/07 06:07:31;;;;;;;10.70;8.65;;;;;;;3.47;81.90;95333.56;5063515;28;20198;-74
2022/01/07 06:09:58;;;;;;;12.77;8.07;;;;;;;3.84;82.69;95329.31;5062565;28;20198;-74
2022/01/07 06:12:24;;;;;;;8.97;5.93;;;;;;;4.07;79.56;95326.69;5062959;28;20202;-74
2022/01/07 06:14:51;;;;;;;5.70;5.15;;;;;;;4.25;78.74;95338.34;5063197;28;20203;-71
2022/01/07 06:17:18;;;;;;;5.95;5.45;;;;;;;4.07;77.57;95336.75;5062114;28;20285;-71
2022/01/07 06:19:45;;;;;;;6.85;5.00;;;;;;;4.24;76.44;95341.69;5060841;28;20206;-71
2022/01/07 06:22:13;;;;;;;5.57;5.10;;;;;;;3.91;77.17;95343.53;5062604;28;20683;-71
2022/01/07 06:24:40;;;;;;;4.85;4.35;;;;;;;3.74;78.17;95337.69;5062157;28;20212;-71
2022/01/07 06:27:07;;;;;;;7.00;5.35;;;;;;;3.61;78.24;95346.13;5061817;28;20210;-71
2022/01/07 06:29:34;;;;;;;5.67;5.17;;;;;;;3.49;79.38;95341.09;5062289;28;20209;-70
2022/01/07 06:32:01;;;;;;;6.85;6.25;;;;;;;3.47;78.97;95345.31;5062329;28;20221;-72
2022/01/07 06:34:27;;;;;;;7.63;5.70;;;;;;;3.61;78.83;95351.16;5062266;28;20195;-71
2022/01/07 06:36:54;;;;;;;5.97;5.37;;;;;;;3.54;79.54;95359.53;5063552;28;20226;-70
2022/01/07 06:39:23;;;;;;;6.07;5.57;;;;;;;3.47;79.88;95357.88;5059996;28;20202;-70
2022/01/07 06:41:51;;;;;;;7.30;5.73;;;;;;;3.47;79.49;95360.38;5061051;28;20244;-70
2022/01/07 06:44:18;;;;;;;6.70;6.10;;;;;;;3.50;80.73;95357.88;5060085;28;20225;-70
2022/01/07 06:46:45;;;;;;;6.30;5.70;;;;;;;3.39;81.21;95371.28;5061230;28;20653;-71
2022/01/07 06:49:13;;;;;;;9.53;6.67;;;;;;;3.48;80.68;95367.06;5059507;28;20256;-71
2022/01/07 06:51:41;;;;;;;7.27;6.57;;;;;;;3.49;80.22;95373.78;5059681;28;20198;-70
2022/01/07 06:54:11;;;;;;;7.20;6.20;;;;;;;3.57;79.78;95370.41;5060444;28;20328;-71
2022/01/07 06:56:39;;;;;;;8.48;6.38;;;;;;;3.69;79.77;95372.94;5061905;28;20198;-71
2022/01/07 06:59:06;;;;;;;11.63;7.40;;;;;;;3.50;79.42;95357.88;5062069;28;20198;-70
2022/01/07 07:01:33;;;;;;;8.40;7.53;;;;;;;3.72;79.52;95364.50;5061781;28;20563;-70
2022/01/07 07:04:00;;;;;;;8.33;6.77;;;;;;;3.85;78.67;95373.72;5061111;28;20237;-71
2022/01/07 07:06:27;;;;;;;8.80;7.60;;;;;;;4.17;77.35;95372.78;5062007;28;20214;-71
2022/01/07 07:08:54;;;;;;;9.07;6.88;;;;;;;4.18;76.59;95371.94;5061471;28;20206;-71
2022/01/07 07:11:21;;;;;;;7.60;6.78;;;;;;;4.34;77.05;95368.50;5062216;28;20207;-70
2022/01/07 07:13:49;;;;;;;7.33;6.63;;;;;;;4.36;76.05;95370.16;5061756;28;20202;-72
2022/01/07 07:16:16;;;;;;;10.43;6.63;;;;;;;4.37;75.77;95365.97;5061586;28;20873;-70
2022/01/07 07:18:43;;;;;;;11.45;6.97;;;;;;;4.55;75.50;95370.06;5061396;28;20683;-70
2022/01/07 07:21:10;;;;;;;10.07;7.30;;;;;;;4.51;75.84;95369.25;5061365;28;20238;-70
2022/01/07 07:23:36;;;;;;;9.75;7.60;;;;;;;4.25;76.12;95360.97;5062181;28;20229;-70
2022/01/07 07:26:03;;;;;;;9.67;7.40;;;;;;;4.22;76.01;95369.38;5061080;28;20194;-71
2022/01/07 07:28:30;;;;;;;9.60;7.18;;;;;;;4.12;76.10;95379.50;5060953;28;20285;-71
2022/01/07 07:31:00;;;;;;;7.65;6.93;;;;;;;4.30;76.14;95374.38;5061015;28;20209;-71
2022/01/07 07:33:53;;;;;;;7.63;6.93;;;;;;;4.57;74.93;95374.25;5061957;28;20209;-71
2022/01/07 07:36:30;;;;;;;8.00;7.25;;;;;;;4.88;74.45;95382.47;5060087;28;20666;-71
2022/01/07 07:39:00;;;;;;;9.77;7.50;;;;;;;4.91;73.28;95369.84;5060784;28;20641;-71
2022/01/07 07:41:26;;;;;;;9.05;6.55;;;;;;;4.86;73.83;95370.72;5061138;28;20198;-72
2022/01/07 07:43:54;;;;;;;12.30;6.95;;;;;;;4.68;73.75;95367.47;5060870;28;20232;-72
2022/01/07 07:46:23;;;;;;;13.68;7.68;;;;;;;4.56;74.22;95377.59;5060577;28;20267;-71
2022/01/07 07:48:51;;;;;;;10.35;7.57;;;;;;;4.61;74.21;95360.81;5060756;28;20248;-71
2022/01/07 07:51:18;;;;;;;14.18;7.57;;;;;;;4.66;73.77;95363.31;5061841;28;20237;-71
2022/01/07 07:53:46;;;;;;;14.80;8.63;;;;;;;4.65;74.14;95364.97;5060706;28;20202;-71
2022/01/07 07:56:15;;;;;;;8.87;7.97;;;;;;;4.52;75.34;95365.88;5059777;28;20195;-70
2022/01/07 07:58:42;;;;;;;11.35;8.52;;;;;;;4.66;76.36;95368.34;5059955;28;20205;-72
2022/01/07 08:01:09;;;;;;;10.93;8.57;;;;;;;4.70;74.74;95355.69;5059424;28;20240;-71
2022/01/07 08:03:38;;;;;;;9.23;8.38;;;;;;;4.97;74.88;95371.47;5060231;28;20226;-70
2022/01/07 08:06:05;;;;;;;11.65;8.40;;;;;;;5.20;74.47;95374.66;5060192;28;20210;-72
2022/01/07 08:08:32;;;;;;;12.25;8.93;;;;;;;5.49;72.32;95371.88;5060004;28;20209;-71
2022/01/07 08:11:01;;;;;;;11.75;9.35;;;;;;;5.53;72.10;95382.78;5060117;28;20234;-71
2022/01/07 08:13:30;;;;;;;17.95;9.35;;;;;;;5.60;72.34;95356.69;5060470;28;20578;-71
2022/01/07 08:16:01;;;;;;;9.80;8.80;;;;;;;5.90;70.36;95369.00;5060535;28;20360;-71
2022/01/07 08:18:29;;;;;;;8.90;7.03;;;;;;;6.31;68.75;95368.53;5058190;28;20680;-71
2022/01/07 08:21:00;;;;;;;10.10;8.27;;;;;;;6.51;68.27;95360.69;5058320;28;21217;-72
2022/01/07 08:23:27;;;;;;;15.60;7.85;;;;;;;7.22;66.97;95361.34;5059611;28;20217;-72
2022/01/07 08:25:54;;;;;;;16.42;8.25;;;;;;;8.86;61.90;95363.31;5058848;28;20298;-72
2022/01/07 08:28:24;;;;;;;10.73;7.60;;;;;;;10.57;55.89;95346.28;5058800;28;20210;-71
2022/01/07 08:31:23;;;;;;;8.20;7.18;;;;;;;11.06;53.65;95352.44;5059447;28;20213;-72
2022/01/07 08:36:36;;;;;;;17.75;9.18;;;;;;;9.60;56.25;95343.81;5060413;28;20233;-71
2022/01/07 08:39:06;;;;;;;9.88;8.65;;;;;;;8.63;59.67;95347.78;5059351;28;20198;-71
2022/01/07 08:41:34;;;;;;;10.45;7.80;;;;;;;8.09;60.59;95348.00;5060061;28;20202;-70
2022/01/07 08:44:00;;;;;;;9.43;7.60;;;;;;;8.67;61.27;95348.53;5061774;28;20225;-70
2022/01/07 08:46:27;;;;;;;10.30;8.38;;;;;;;9.08;58.59;95347.63;5060202;28;20202;-72
2022/01/07 08:48:55;;;;;;;8.07;7.32;;;;;;;8.82;59.01;95346.50;5060938;28;20202;-71
2022/01/07 08:51:22;;;;;;;8.93;7.95;;;;;;;8.69;59.53;95346.78;5060604;28;20229;-71
2022/01/07 08:53:51;;;;;;;7.82;6.93;;;;;;;8.50;59.27;95342.13;5061685;28;20205;-71
2022/01/07 08:56:17;;;;;;;11.52;7.22;;;;;;;8.06;60.66;95326.97;5065222;28;20210;-71
2022/01/07 08:58:44;;;;;;;9.93;7.53;;;;;;;8.16;61.48;95336.06;5063901;28;20224;-71
2022/01/07 09:01:11;;;;;;;10.70;7.57;;;;;;;8.62;59.55;95328.38;5061766;28;20201;-71
2022/01/07 09:03:38;;;;;;;8.88;7.40;;;;;;;8.84;59.19;95328.75;5062919;28;20233;-71
2022/01/07 09:06:05;;;;;;;9.65;7.88;;;;;;;8.72;59.88;95324.75;5062962;28;20220;-71
2022/01/07 09:08:32;;;;;;;8.52;7.65;;;;;;;8.46;60.17;95322.78;5064671;28;20265;-71
2022/01/07 09:11:00;;;;;;;12.15;7.88;;;;;;;7.80;61.22;95325.78;5062682;28;20325;-69
2022/01/07 09:13:30;;;;;;;8.10;7.40;;;;;;;7.20;63.46;95321.78;5064827;28;20674;-70
2022/01/07 09:15:56;;;;;;;8.73;7.82;;;;;;;6.77;65.65;95319.94;5062708;28;20259;-71
2022/01/07 09:18:24;;;;;;;10.52;8.10;;;;;;;6.67;65.74;95316.72;5061926;28;20206;-71
2022/01/07 09:20:50;;;;;;;40.78;20.88;;;;;;;6.97;71.08;95314.56;5061859;28;20206;-76
2022/01/07 09:23:17;;;;;;;38.72;19.13;;;;;;;6.97;75.99;95317.94;5061650;28;20206;-74
2022/01/07 09:25:44;;;;;;;10.75;8.85;;;;;;;7.47;67.06;95309.50;5061340;28;20205;-70
2022/01/07 09:28:13;;;;;;;9.52;7.68;;;;;;;7.20;65.39;95316.72;5061784;28;20206;-71
2022/01/07 09:30:39;;;;;;;10.55;8.77;;;;;;;6.94;65.49;95307.88;5061423;28;20774;-70
2022/01/07 09:33:06;;;;;;;8.07;7.20;;;;;;;6.79;66.24;95316.53;5063874;28;20198;-70
2022/01/07 09:35:33;;;;;;;8.60;7.57;;;;;;;6.75;66.12;95306.50;5062754;28;20202;-70
2022/01/07 09:38:00;;;;;;;8.75;7.85;;;;;;;6.32;67.68;95313.84;5063066;28;20213;-71
2022/01/07 09:40:27;;;;;;;8.77;7.78;;;;;;;6.32;67.68;95309.63;5063339;28;20203;-71
2022/01/07 09:42:55;;;;;;;9.57;7.90;;;;;;;6.66;66.62;95304.94;5063171;28;20210;-70
2022/01/07 09:45:25;;;;;;;10.27;7.95;;;;;;;6.55;66.86;95294.16;5063146;28;20237;-70
2022/01/07 09:47:52;;;;;;;10.25;8.25;;;;;;;6.57;66.39;95287.41;5063981;28;20289;-71
2022/01/07 09:50:20;;;;;;;9.35;7.35;;;;;;;6.26;68.33;95289.50;5063221;28;20206;-70
2022/01/07 09:52:46;;;;;;;13.00;7.97;;;;;;;6.08;68.61;95279.66;5062366;28;20235;-70
2022/01/07 09:55:13;;;;;;;9.80;7.35;;;;;;;6.14;68.24;95277.91;5061276;28;20582;-70
2022/01/07 09:57:40;;;;;;;12.32;8.48;;;;;;;5.95;69.12;95291.56;5060981;28;20209;-70
2022/01/07 10:00:11;;;;;;;12.15;7.47;;;;;;;6.20;68.44;95293.78;5061285;28;20205;-70
2022/01/07 10:02:39;;;;;;;9.05;7.18;;;;;;;6.39;67.86;95285.16;5060771;28;20202;-70
2022/01/07 10:05:17;;;;;;;11.20;8.10;;;;;;;6.56;67.41;95282.38;5060763;28;20633;-71
2022/01/07 10:07:45;;;;;;;7.50;5.90;;;;;;;6.72;66.74;95288.84;5061060;28;20207;-71
2022/01/07 10:10:14;;;;;;;8.65;6.93;;;;;;;6.73;66.77;95280.41;5062941;28;20250;-71
2022/01/07 10:12:55;;;;;;;12.57;7.65;;;;;;;6.75;66.27;95279.53;5062832;28;20190;-71
2022/01/07 10:15:23;;;;;;;7.80;7.00;;;;;;;6.87;65.57;95272.63;5062312;28;20191;-71
2022/01/07 10:18:00;;;;;;;9.80;6.45;;;;;;;6.73;66.10;95280.41;5063623;28;20210;-70
2022/01/07 10:20:30;;;;;;;10.02;7.50;;;;;;;6.87;65.69;95272.63;5062072;28;20984;-71
2022/01/07 10:22:59;;;;;;;9.25;6.75;;;;;;;6.59;65.49;95273.06;5062466;28;20222;-71
2022/01/07 10:25:28;;;;;;;8.90;7.00;;;;;;;6.51;66.17;95263.91;5062273;28;20298;-70
2022/01/07 10:28:01;;;;;;;11.23;7.05;;;;;;;6.39;66.93;95275.03;5062654;28;20522;-70
2022/01/07 10:30:28;;;;;;;17.58;7.07;;;;;;;6.13;68.53;95263.63;5062338;28;20745;-70
2022/01/07 10:32:56;;;;;;;7.15;5.97;;;;;;;6.14;68.35;95261.94;5062423;28;20206;-71
2022/01/07 10:35:26;;;;;;;12.05;7.30;;;;;;;6.22;68.63;95251.72;5061916;28;20206;-71
2022/01/07 10:37:56;;;;;;;9.27;7.53;;;;;;;6.39;67.55;95249.81;5062978;28;20242;-70
2022/01/07 10:40:32;;;;;;;9.88;6.97;;;;;;;6.82;66.32;95250.81;5061914;28;20213;-70
2022/01/07 10:43:13;;;;;;;8.73;6.20;;;;;;;7.11;64.99;95241.91;5062545;28;20634;-70
2022/01/07 10:45:42;;;;;;;9.85;7.03;;;;;;;7.01;64.48;95242.91;5062132;28;20573;-70
2022/01/07 10:48:09;;;;;;;9.88;7.22;;;;;;;7.12;64.63;95249.47;5061529;28;20256;-70
2022/01/07 10:50:43;;;;;;;9.63;8.00;;;;;;;7.09;64.46;95223.41;5062620;28;20218;-70
2022/01/07 10:53:25;;;;;;;13.38;8.63;;;;;;;6.99;65.17;95237.06;5061655;28;20289;-70
2022/01/07 10:56:12;;;;;;;12.73;8.05;;;;;;;7.32;63.79;95236.47;5061977;28;20203;-71
2022/01/07 10:59:00;;;;;;;11.13;8.23;;;;;;;7.14;63.63;95242.69;5061561;28;20206;-70
2022/01/07 11:01:28;;;;;;;11.98;7.25;;;;;;;7.20;63.66;95240.91;5062589;28;20206;-70
2022/01/07 11:03:57;;;;;;;12.68;7.32;;;;;;;6.75;65.39;95239.13;5061308;28;20244;-70
2022/01/07 11:06:28;;;;;;;11.07;6.63;;;;;;;6.88;65.76;95228.84;5062263;28;20210;-70
2022/01/07 11:08:56;;;;;;;11.82;7.45;;;;;;;6.98;69.11;95235.38;5062669;28;20209;-70
2022/01/07 11:11:25;;;;;;;9.93;7.55;;;;;;;6.92;64.97;95235.50;5061575;28;20202;-71
2022/01/07 11:13:52;;;;;;;16.05;9.52;;;;;;;6.95;69.36;95231.22;5061424;28;20209;-71
2022/01/07 11:16:20;;;;;;;9.63;6.47;;;;;;;7.08;64.05;95227.63;5060375;28;20210;-71
2022/01/07 11:18:49;;;;;;;10.18;6.80;;;;;;;7.05;63.82;95221.81;5061509;28;20661;-70
2022/01/07 11:21:18;;;;;;;9.07;6.75;;;;;;;6.76;65.07;95218.06;5060753;28;20222;-70
2022/01/07 11:23:46;;;;;;;11.75;7.75;;;;;;;7.03;63.99;95228.56;5061103;28;20602;-71
2022/01/07 11:26:16;;;;;;;9.75;7.00;;;;;;;7.17;64.18;95224.13;5060638;28;20206;-69
2022/01/07 11:29:00;;;;;;;14.82;8.13;;;;;;;6.94;63.23;95221.13;5060848;28;20203;-71
2022/01/07 11:31:27;;;;;;;18.77;9.40;;;;;;;6.80;63.55;95209.59;5061278;28;20305;-70
2022/01/07 11:34:26;;;;;;;16.05;9.05;;;;;;;6.80;63.99;95221.38;5061093;28;20202;-71
2022/01/07 11:36:54;;;;;;;18.75;10.38;;;;;;;6.81;64.84;95223.88;5061347;28;20287;-70
2022/01/07 11:39:23;;;;;;;14.85;7.88;;;;;;;6.76;63.15;95215.53;5061291;28;20214;-71
2022/01/07 11:41:53;;;;;;;17.48;9.65;;;;;;;6.82;63.48;95205.34;5061897;28;20688;-70
2022/01/07 11:44:26;;;;;;;19.25;10.90;;;;;;;6.75;63.41;95213.03;5058517;28;20716;-70
2022/01/07 11:47:24;;;;;;;12.05;7.20;;;;;;;6.87;63.43;95209.50;5060362;28;20210;-71